Погода Пареевона 2 недели

Смоленская область, Россия

25 мая-06 июня
  • 25мая
    Сегодня
    +9°
    +24°
    Ясно и безоблачно
    ВремяПогодаТемператураВлажностьДавлениеВетер, м/сВероятность осадков
    00:00Ясно и безоблачно+10°C55 %753 мм2.6 м/с2 %
    03:00Ясно и безоблачно+7°C64 %753 мм2.2 м/с2 %
    06:00Ясно и безоблачно+9°C66 %753 мм2.4 м/с2 %
    09:00Ясно и безоблачно+16°C50 %753 мм1.6 м/с2 %
    12:00Ясно и безоблачно+21°C36 %752 мм2.0 м/с2 %
    15:00Ясно и безоблачно+23°C33 %751 мм2.5 м/с2 %
    18:00Ясно и безоблачно+23°C34 %750 мм2.2 м/с2 %
    21:00Ясно и безоблачно+17°C61 %749 мм2.5 м/с2 %
  • 26мая
    Воскресенье
    +12°
    +25°
    Практически безоблачно
    ВремяПогодаТемператураВлажностьДавлениеВетер, м/сВероятность осадков
    00:00Ясно и безоблачно+12°C65 %749 мм2.2 м/с2 %
    03:00Ясно и безоблачно+9°C78 %749 мм2.1 м/с2 %
    06:00Ясно и безоблачно+11°C79 %749 мм2.2 м/с2 %
    09:00Ясно и безоблачно+20°C54 %750 мм1.5 м/с2 %
    12:00Ясно и безоблачно+24°C38 %749 мм2.3 м/с2 %
    15:00Практически безоблачно+25°C34 %749 мм2.3 м/с4 %
    18:00Небольшая облачность+25°C36 %748 мм2.3 м/с13 %
    21:00Ясно и безоблачно+19°C61 %749 мм2.2 м/с4 %
  • 27мая
    Понедельник
    +11°
    +24°
    Практически безоблачно
    ВремяПогодаТемператураВлажностьДавлениеВетер, м/сВероятность осадков
    00:00Ясно и безоблачно+15°C79 %749 мм2.4 м/с2 %
    03:00Ясно и безоблачно+12°C93 %749 мм2.4 м/с2 %
    06:00Ясно и безоблачно+14°C89 %750 мм3.0 м/с2 %
    09:00Ясно и безоблачно+19°C54 %750 мм2.8 м/с2 %
    12:00Практически безоблачно+23°C49 %750 мм3.2 м/с18 %
    15:00Практически безоблачно+24°C41 %750 мм2.5 м/с29 %
    18:00Ясно и безоблачно+24°C38 %749 мм2.4 м/с23 %
    21:00Ясно и безоблачно+19°C52 %749 мм2.3 м/с5 %
  • 28мая
    Вторник
    +10°
    +25°
    Облачно с прояснениями
    ВремяПогодаТемператураВлажностьДавлениеВетер, м/сВероятность осадков
    00:00Ясно и безоблачно+14°C69 %748 мм2.3 м/с2 %
    03:00Ясно и безоблачно+12°C78 %748 мм2.2 м/с2 %
    06:00Ясно и безоблачно+13°C77 %748 мм2.0 м/с2 %
    09:00Ясно и безоблачно+21°C58 %749 мм1.1 м/с2 %
    12:00Небольшая облачность+24°C42 %748 мм1.6 м/с4 %
    15:00Облачно с прояснениями+25°C36 %747 мм1.8 м/с17 %
    18:00Практически безоблачно+24°C37 %746 мм2.4 м/с22 %
    21:00Ясно и безоблачно+20°C51 %746 мм2.3 м/с6 %
Мы используем cookies
Соглашаюсь